createdAt,value
2022-08-30T00:01:52.900Z,102858.00
2022-08-30T00:04:25.870Z,102858.00
2022-08-30T00:06:58.907Z,102864.00
2022-08-30T00:09:31.657Z,102858.00
2022-08-30T00:12:05.839Z,102859.00
2022-08-30T00:14:39.202Z,102860.00
2022-08-30T00:17:12.922Z,102854.00
2022-08-30T00:19:45.760Z,102846.00
2022-08-30T00:22:19.411Z,102835.00
2022-08-30T00:24:52.172Z,102853.00
2022-08-30T00:27:24.999Z,102846.00
2022-08-30T00:29:57.808Z,102829.00
2022-08-30T00:32:30.972Z,102827.00
2022-08-30T00:35:03.928Z,102827.00
2022-08-30T00:37:37.316Z,102816.00
2022-08-30T00:40:12.105Z,102825.00
2022-08-30T00:42:45.429Z,102812.00
2022-08-30T00:45:31.116Z,102812.00
2022-08-30T00:48:04.342Z,102811.00
2022-08-30T00:50:41.682Z,102807.00
2022-08-30T00:53:17.154Z,102804.00
2022-08-30T00:55:50.906Z,102806.00
2022-08-30T00:58:26.228Z,102796.00
2022-08-30T01:01:01.367Z,102792.00
2022-08-30T01:03:35.333Z,102789.00
2022-08-30T01:06:09.353Z,102791.00
2022-08-30T01:08:42.140Z,102790.00
2022-08-30T01:11:16.234Z,102785.00
2022-08-30T01:13:50.136Z,102782.00
2022-08-30T01:16:24.272Z,102788.00
2022-08-30T01:19:00.133Z,102771.00
2022-08-30T01:21:38.197Z,102781.00
2022-08-30T01:24:12.565Z,102773.00
2022-08-30T01:26:45.535Z,102771.00
2022-08-30T01:29:20.359Z,102767.00
2022-08-30T01:31:53.320Z,102763.00
2022-08-30T01:34:26.315Z,102762.00
2022-08-30T01:36:59.057Z,102762.00
2022-08-30T01:39:32.533Z,102760.00
2022-08-30T01:42:06.275Z,102755.00
2022-08-30T01:44:39.111Z,102751.00
2022-08-30T01:47:12.849Z,102758.00
2022-08-30T01:49:45.713Z,102746.00
2022-08-30T01:52:19.975Z,102753.00
2022-08-30T01:54:53.528Z,102758.00
2022-08-30T01:57:32.932Z,102744.00
2022-08-30T02:00:09.739Z,102748.00
2022-08-30T02:02:41.299Z,102740.00
2022-08-30T02:05:18.755Z,102733.00
2022-08-30T02:07:51.718Z,102727.00
2022-08-30T02:10:24.733Z,102724.00
2022-08-30T02:12:57.578Z,102731.00
2022-08-30T02:15:30.479Z,102719.00
2022-08-30T02:18:04.737Z,102717.00
2022-08-30T02:20:41.587Z,102720.00
2022-08-30T02:23:14.590Z,102716.00
2022-08-30T02:25:47.538Z,102710.00
2022-08-30T02:28:21.694Z,102714.00
2022-08-30T02:30:56.017Z,102703.00
2022-08-30T02:33:28.862Z,102699.00
2022-08-30T02:36:01.863Z,102707.00
2022-08-30T02:38:34.856Z,102701.00
2022-08-30T02:41:07.773Z,102699.00
2022-08-30T02:43:40.795Z,102700.00
2022-08-30T02:46:13.773Z,102701.00
2022-08-30T02:48:47.273Z,102697.00
2022-08-30T02:54:09.096Z,102703.00
2022-08-30T02:56:41.797Z,102702.00
2022-08-30T02:59:14.836Z,102707.00
2022-08-30T03:01:47.968Z,102715.00
2022-08-30T03:04:26.368Z,102712.00
2022-08-30T03:06:55.337Z,102715.00
2022-08-30T03:09:28.606Z,102706.00
2022-08-30T03:12:05.823Z,102707.00
2022-08-30T03:14:39.571Z,102708.00
2022-08-30T03:17:15.563Z,102697.00
2022-08-30T03:19:48.844Z,102695.00
2022-08-30T03:22:21.854Z,102687.00
2022-08-30T03:24:54.817Z,102703.00
2022-08-30T03:27:28.830Z,102693.00
2022-08-30T03:30:01.693Z,102685.00
2022-08-30T03:32:34.684Z,102696.00
2022-08-30T03:35:07.905Z,102693.00
2022-08-30T03:37:40.972Z,102683.00
2022-08-30T03:40:15.983Z,102686.00
2022-08-30T03:42:50.584Z,102686.00
2022-08-30T03:45:23.998Z,102688.00
2022-08-30T03:47:57.344Z,102689.00
2022-08-30T03:50:30.420Z,102688.00
2022-08-30T03:53:03.929Z,102680.00
2022-08-30T03:55:36.886Z,102695.00
2022-08-30T03:58:09.578Z,102689.00
2022-08-30T04:00:42.679Z,102698.00
2022-08-30T04:03:16.091Z,102692.00
2022-08-30T04:05:49.075Z,102686.00
2022-08-30T04:08:22.140Z,102687.00
2022-08-30T04:10:55.378Z,102696.00
2022-08-30T04:13:28.643Z,102694.00
2022-08-30T04:16:01.406Z,102693.00
2022-08-30T04:18:34.736Z,102692.00
2022-08-30T04:21:14.130Z,102688.00
2022-08-30T04:23:46.474Z,102687.00
2022-08-30T04:26:19.242Z,102678.00
2022-08-30T04:28:52.139Z,102680.00
2022-08-30T04:31:25.056Z,102694.00
2022-08-30T04:33:57.886Z,102686.00
2022-08-30T04:36:30.868Z,102690.00
2022-08-30T04:39:03.594Z,102689.00
2022-08-30T04:41:39.055Z,102698.00
2022-08-30T04:44:16.801Z,102694.00
2022-08-30T04:46:45.946Z,102696.00
2022-08-30T04:49:18.653Z,102701.00
2022-08-30T04:51:51.645Z,102710.00
2022-08-30T04:54:24.430Z,102706.00
2022-08-30T04:56:57.476Z,102707.00
2022-08-30T04:59:30.752Z,102714.00
2022-08-30T05:02:04.020Z,102717.00
2022-08-30T05:04:37.083Z,102717.00
2022-08-30T05:07:13.509Z,102724.00
2022-08-30T05:09:46.398Z,102725.00
2022-08-30T05:12:19.231Z,102731.00
2022-08-30T05:14:52.213Z,102732.00
2022-08-30T05:17:27.562Z,102734.00
2022-08-30T05:20:00.982Z,102734.00
2022-08-30T05:22:34.389Z,102738.00
2022-08-30T05:25:07.597Z,102742.00
2022-08-30T05:27:43.846Z,102742.00
2022-08-30T05:30:18.365Z,102746.00
2022-08-30T05:32:51.202Z,102747.00
2022-08-30T05:35:25.905Z,102750.00
2022-08-30T05:37:59.053Z,102757.00
2022-08-30T05:40:32.149Z,102758.00
2022-08-30T05:43:04.921Z,102758.00
2022-08-30T05:45:37.572Z,102758.00
2022-08-30T05:48:13.007Z,102766.00
2022-08-30T05:50:44.602Z,102772.00
2022-08-30T05:53:17.293Z,102778.00
2022-08-30T05:55:50.134Z,102783.00
2022-08-30T05:58:23.027Z,102784.00
2022-08-30T06:00:55.969Z,102788.00
2022-08-30T06:03:29.269Z,102788.00
2022-08-30T06:06:02.228Z,102786.00
2022-08-30T06:08:34.968Z,102795.00
2022-08-30T06:11:07.883Z,102792.00
2022-08-30T06:13:40.539Z,102788.00
2022-08-30T06:16:14.818Z,102801.00
2022-08-30T06:18:47.929Z,102792.00
2022-08-30T06:21:21.853Z,102802.00
2022-08-30T06:23:58.847Z,102808.00
2022-08-30T06:29:05.751Z,102813.00
2022-08-30T06:31:39.539Z,102819.00
2022-08-30T06:34:12.562Z,102823.00
2022-08-30T06:36:50.106Z,102834.00
2022-08-30T06:39:22.871Z,102830.00
2022-08-30T06:41:56.060Z,102827.00
2022-08-30T06:44:29.113Z,102840.00
2022-08-30T06:47:03.183Z,102840.00
2022-08-30T06:49:36.158Z,102843.00
2022-08-30T06:52:09.225Z,102845.00
2022-08-30T06:54:46.030Z,102845.00
2022-08-30T06:57:19.049Z,102840.00
2022-08-30T06:59:56.665Z,102838.00
2022-08-30T07:02:26.422Z,102843.00
2022-08-30T07:04:59.393Z,102852.00
2022-08-30T07:07:32.314Z,102859.00
2022-08-30T07:10:07.285Z,102847.00
2022-08-30T07:12:40.171Z,102857.00
2022-08-30T07:15:13.971Z,102852.00
2022-08-30T07:17:48.013Z,102859.00
2022-08-30T07:20:21.812Z,102854.00
2022-08-30T07:22:55.140Z,102862.00
2022-08-30T07:25:28.285Z,102862.00
2022-08-30T07:28:01.126Z,102868.00
2022-08-30T07:30:34.961Z,102871.00
2022-08-30T07:33:09.145Z,102873.00
2022-08-30T07:35:42.907Z,102863.00
2022-08-30T07:38:17.159Z,102866.00
2022-08-30T07:40:50.577Z,102873.00
2022-08-30T07:43:24.891Z,102868.00
2022-08-30T07:45:59.179Z,102868.00
2022-08-30T07:48:32.224Z,102870.00
2022-08-30T07:51:07.054Z,102878.00
2022-08-30T07:53:39.960Z,102868.00
2022-08-30T07:56:12.807Z,102881.00
2022-08-30T07:58:46.110Z,102881.00
2022-08-30T08:01:20.315Z,102872.00
2022-08-30T08:03:54.291Z,102877.00
2022-08-30T08:06:27.621Z,102877.00
2022-08-30T08:09:03.236Z,102886.00
2022-08-30T08:11:37.483Z,102882.00
2022-08-30T08:14:11.007Z,102876.00
2022-08-30T08:16:49.071Z,102883.00
2022-08-30T08:19:22.143Z,102871.00
2022-08-30T08:22:19.656Z,102876.00
2022-08-30T08:24:34.586Z,102870.00
2022-08-30T08:27:09.956Z,102871.00
2022-08-30T08:29:42.932Z,102867.00
2022-08-30T08:32:15.759Z,102876.00
2022-08-30T08:34:48.783Z,102868.00
2022-08-30T08:37:26.735Z,102866.00
2022-08-30T08:39:57.879Z,102872.00
2022-08-30T08:43:02.256Z,102873.00
2022-08-30T08:45:55.060Z,102870.00
2022-08-30T08:48:45.636Z,102867.00
2022-08-30T08:51:26.714Z,102862.00
2022-08-30T08:54:05.402Z,102863.00
2022-08-30T08:56:39.267Z,102858.00
2022-08-30T08:59:13.679Z,102862.00
2022-08-30T09:01:46.703Z,102849.00
2022-08-30T09:04:31.464Z,102865.00
2022-08-30T09:07:08.773Z,102859.00
2022-08-30T09:09:43.121Z,102865.00
2022-08-30T09:12:16.697Z,102865.00
2022-08-30T09:14:51.483Z,102868.00
2022-08-30T09:17:26.490Z,102868.00
2022-08-30T09:20:01.295Z,102867.00
2022-08-30T09:22:41.485Z,102877.00
2022-08-30T09:25:19.603Z,102875.00
2022-08-30T09:27:54.183Z,102867.00
2022-08-30T09:30:29.142Z,102876.00
2022-08-30T09:33:09.967Z,102876.00
2022-08-30T09:35:50.602Z,102876.00
2022-08-30T09:38:27.937Z,102875.00
2022-08-30T09:41:02.873Z,102871.00
2022-08-30T09:43:37.703Z,102866.00
2022-08-30T09:46:16.481Z,102881.00
2022-08-30T09:48:49.203Z,102873.00
2022-08-30T09:51:24.252Z,102870.00
2022-08-30T09:54:18.129Z,102870.00
2022-08-30T09:57:12.609Z,102877.00
2022-08-30T09:59:59.519Z,102874.00
2022-08-30T10:02:46.979Z,102883.00
2022-08-30T10:05:42.999Z,102882.00
2022-08-30T10:08:25.278Z,102882.00
2022-08-30T10:11:08.609Z,102880.00
2022-08-30T10:14:08.571Z,102882.00
2022-08-30T10:16:52.862Z,102876.00
2022-08-30T10:19:51.898Z,102878.00
2022-08-30T10:22:30.148Z,102872.00
2022-08-30T10:25:06.443Z,102875.00
2022-08-30T10:27:41.071Z,102862.00
2022-08-30T10:30:17.312Z,102874.00
2022-08-30T10:33:04.229Z,102878.00
2022-08-30T10:35:41.957Z,102866.00
2022-08-30T10:38:38.862Z,102866.00
2022-08-30T10:41:33.786Z,102861.00
2022-08-30T10:44:27.437Z,102859.00
2022-08-30T10:47:18.509Z,102864.00
2022-08-30T10:49:55.193Z,102866.00
2022-08-30T10:52:41.708Z,102864.00
2022-08-30T10:55:16.883Z,102875.00
2022-08-30T10:57:49.834Z,102876.00
2022-08-30T11:00:27.681Z,102868.00
2022-08-30T11:03:20.042Z,102871.00
2022-08-30T11:06:14.769Z,102876.00
2022-08-30T11:08:58.465Z,102867.00
2022-08-30T11:11:40.883Z,102865.00
2022-08-30T11:14:14.572Z,102859.00
2022-08-30T11:16:52.743Z,102864.00
2022-08-30T11:19:42.748Z,102860.00
2022-08-30T11:22:20.406Z,102864.00
2022-08-30T11:25:09.825Z,102871.00
2022-08-30T11:28:01.047Z,102864.00
2022-08-30T11:30:36.100Z,102866.00
2022-08-30T11:33:15.628Z,102866.00
2022-08-30T11:35:51.615Z,102866.00
2022-08-30T11:38:32.682Z,102864.00
2022-08-30T11:41:13.726Z,102863.00
2022-08-30T11:43:53.157Z,102873.00
2022-08-30T11:46:34.167Z,102879.00
2022-08-30T11:49:18.197Z,102884.00
2022-08-30T11:52:26.571Z,102886.00
2022-08-30T11:55:04.526Z,102882.00
2022-08-30T11:58:00.946Z,102883.00
2022-08-30T12:00:36.335Z,102879.00
2022-08-30T12:03:20.849Z,102875.00
2022-08-30T12:06:11.476Z,102886.00
2022-08-30T12:08:47.247Z,102891.00
2022-08-30T12:11:25.785Z,102897.00
2022-08-30T12:13:59.765Z,102900.00
2022-08-30T12:17:06.241Z,102905.00
2022-08-30T12:19:41.386Z,102903.00
2022-08-30T12:22:16.472Z,102899.00
2022-08-30T12:24:52.730Z,102905.00
2022-08-30T12:27:34.870Z,102889.00
2022-08-30T12:30:10.173Z,102879.00
2022-08-30T12:32:51.441Z,102879.00
2022-08-30T12:35:31.778Z,102883.00
2022-08-30T12:38:07.759Z,102877.00
2022-08-30T12:40:41.478Z,102883.00
2022-08-30T12:43:17.296Z,102862.00
2022-08-30T12:45:52.766Z,102867.00
2022-08-30T12:48:26.978Z,102864.00
2022-08-30T12:51:02.913Z,102865.00
2022-08-30T12:53:47.701Z,102865.00
2022-08-30T12:56:40.636Z,102861.00
2022-08-30T12:58:57.964Z,102858.00
2022-08-30T13:01:33.480Z,102857.00
2022-08-30T13:04:26.182Z,102850.00
2022-08-30T13:07:01.039Z,102854.00
2022-08-30T13:09:47.196Z,102849.00
2022-08-30T13:12:29.491Z,102855.00
2022-08-30T13:15:19.983Z,102856.00
2022-08-30T13:17:53.952Z,102853.00
2022-08-30T13:20:29.184Z,102853.00
2022-08-30T13:23:11.201Z,102857.00
2022-08-30T13:25:44.634Z,102843.00
2022-08-30T13:28:18.389Z,102844.00
2022-08-30T13:30:51.381Z,102848.00
2022-08-30T13:33:24.316Z,102841.00
2022-08-30T13:35:57.907Z,102852.00
2022-08-30T13:38:31.737Z,102852.00
2022-08-30T13:41:04.539Z,102840.00
2022-08-30T13:44:09.339Z,102844.00
2022-08-30T13:46:23.196Z,102840.00
2022-08-30T13:48:57.941Z,102844.00
2022-08-30T13:51:30.939Z,102830.00
2022-08-30T13:54:05.994Z,102842.00
2022-08-30T13:56:38.976Z,102831.00
2022-08-30T13:59:11.844Z,102835.00
2022-08-30T14:04:19.459Z,102827.00
2022-08-30T14:09:26.455Z,102810.00
2022-08-30T14:12:01.768Z,102813.00
2022-08-30T14:14:42.450Z,102806.00
2022-08-30T14:17:09.168Z,102801.00
2022-08-30T14:19:42.271Z,102805.00
2022-08-30T14:22:15.102Z,102799.00
2022-08-30T14:24:48.177Z,102799.00
2022-08-30T14:27:22.395Z,102797.00
2022-08-30T14:29:56.558Z,102790.00
2022-08-30T14:32:29.388Z,102798.00
2022-08-30T14:35:02.174Z,102788.00
2022-08-30T14:37:36.408Z,102794.00
2022-08-30T14:40:11.992Z,102789.00
2022-08-30T14:42:45.256Z,102789.00
2022-08-30T14:45:18.200Z,102787.00
2022-08-30T14:47:52.360Z,102788.00
2022-08-30T14:50:25.389Z,102777.00
2022-08-30T14:52:59.220Z,102780.00
2022-08-30T14:55:35.587Z,102776.00
2022-08-30T14:58:09.317Z,102774.00
2022-08-30T15:00:43.037Z,102773.00
2022-08-30T15:03:17.142Z,102776.00
2022-08-30T15:05:56.394Z,102773.00
2022-08-30T15:08:29.205Z,102773.00
2022-08-30T15:11:02.057Z,102767.00
2022-08-30T15:13:35.084Z,102758.00
2022-08-30T15:16:09.182Z,102767.00
2022-08-30T15:18:42.966Z,102750.00
2022-08-30T15:21:16.089Z,102744.00
2022-08-30T15:23:49.771Z,102742.00
2022-08-30T15:26:23.872Z,102753.00
2022-08-30T15:28:57.116Z,102743.00
2022-08-30T15:31:32.862Z,102750.00
2022-08-30T15:34:05.860Z,102749.00
2022-08-30T15:36:39.897Z,102749.00
2022-08-30T15:39:14.505Z,102749.00
2022-08-30T15:41:53.762Z,102752.00
2022-08-30T15:44:23.901Z,102736.00
2022-08-30T15:46:56.851Z,102753.00
2022-08-30T15:49:29.630Z,102744.00
2022-08-30T15:52:07.447Z,102744.00
2022-08-30T15:54:43.506Z,102738.00
2022-08-30T15:57:17.414Z,102744.00
2022-08-30T15:59:50.268Z,102745.00
2022-08-30T16:02:27.497Z,102748.00
2022-08-30T16:04:57.169Z,102762.00
2022-08-30T16:07:30.095Z,102755.00
2022-08-30T16:10:02.852Z,102763.00
2022-08-30T16:12:35.924Z,102764.00
2022-08-30T16:15:09.223Z,102766.00
2022-08-30T16:17:42.047Z,102765.00
2022-08-30T16:20:15.420Z,102763.00
2022-08-30T16:22:48.200Z,102762.00
2022-08-30T16:25:21.253Z,102773.00
2022-08-30T16:27:55.272Z,102763.00
2022-08-30T16:30:28.203Z,102770.00
2022-08-30T16:33:01.226Z,102766.00
2022-08-30T16:35:34.040Z,102764.00
2022-08-30T16:38:06.908Z,102768.00
2022-08-30T16:40:41.427Z,102762.00
2022-08-30T16:43:15.772Z,102759.00
2022-08-30T16:45:49.009Z,102764.00
2022-08-30T16:48:21.750Z,102775.00
2022-08-30T16:50:54.818Z,102765.00
2022-08-30T16:53:28.785Z,102763.00
2022-08-30T16:56:02.633Z,102767.00
2022-08-30T16:58:35.517Z,102764.00
2022-08-30T17:01:08.731Z,102769.00
2022-08-30T17:03:43.094Z,102771.00
2022-08-30T17:06:15.831Z,102771.00
2022-08-30T17:08:49.414Z,102775.00
2022-08-30T17:11:23.407Z,102782.00
2022-08-30T17:13:56.171Z,102782.00
2022-08-30T17:16:31.509Z,102780.00
2022-08-30T17:19:04.641Z,102778.00
2022-08-30T17:21:38.898Z,102778.00
2022-08-30T17:24:11.656Z,102778.00
2022-08-30T17:26:44.647Z,102784.00
2022-08-30T17:29:17.951Z,102784.00
2022-08-30T17:31:51.584Z,102786.00
2022-08-30T17:34:26.490Z,102785.00
2022-08-30T17:37:00.619Z,102785.00
2022-08-30T17:39:33.751Z,102786.00
2022-08-30T17:42:07.096Z,102789.00
2022-08-30T17:44:42.284Z,102791.00
2022-08-30T17:47:14.562Z,102783.00
2022-08-30T17:49:48.235Z,102793.00
2022-08-30T17:52:21.181Z,102791.00
2022-08-30T17:54:55.341Z,102799.00
2022-08-30T17:57:29.657Z,102805.00
2022-08-30T18:00:02.781Z,102807.00
2022-08-30T18:02:36.901Z,102805.00
2022-08-30T18:05:11.829Z,102811.00
2022-08-30T18:07:44.855Z,102803.00
2022-08-30T18:10:17.774Z,102813.00
2022-08-30T18:12:50.966Z,102813.00
2022-08-30T18:15:25.443Z,102816.00
2022-08-30T18:17:58.332Z,102821.00
2022-08-30T18:20:33.464Z,102821.00
2022-08-30T18:23:06.703Z,102821.00
2022-08-30T18:25:40.308Z,102823.00
2022-08-30T18:28:14.360Z,102836.00
2022-08-30T18:30:51.417Z,102832.00
2022-08-30T18:33:25.546Z,102841.00
2022-08-30T18:35:58.489Z,102833.00
2022-08-30T18:38:31.653Z,102847.00
2022-08-30T18:41:12.591Z,102840.00
2022-08-30T18:43:45.730Z,102847.00
2022-08-30T18:46:19.226Z,102855.00
2022-08-30T18:48:52.561Z,102857.00
2022-08-30T18:51:26.220Z,102861.00
2022-08-30T18:54:00.433Z,102863.00
2022-08-30T18:56:33.494Z,102869.00
2022-08-30T18:59:08.044Z,102861.00
2022-08-30T19:01:41.718Z,102874.00
2022-08-30T19:04:29.510Z,102882.00
2022-08-30T19:06:48.717Z,102869.00
2022-08-30T19:09:22.103Z,102873.00
2022-08-30T19:11:55.875Z,102873.00
2022-08-30T19:14:28.782Z,102868.00
2022-08-30T19:17:06.584Z,102880.00
2022-08-30T19:19:37.309Z,102874.00
2022-08-30T19:22:10.577Z,102876.00
2022-08-30T19:24:43.815Z,102880.00
2022-08-30T19:27:16.847Z,102889.00
2022-08-30T19:29:53.102Z,102886.00
2022-08-30T19:32:23.846Z,102884.00
2022-08-30T19:34:57.629Z,102879.00
2022-08-30T19:37:34.688Z,102878.00
2022-08-30T19:40:09.543Z,102880.00
2022-08-30T19:42:46.098Z,102878.00
2022-08-30T19:45:21.676Z,102884.00
2022-08-30T19:47:55.040Z,102886.00
2022-08-30T19:50:28.411Z,102895.00
2022-08-30T19:53:01.469Z,102889.00
2022-08-30T19:55:34.517Z,102887.00
2022-08-30T19:58:07.467Z,102899.00
2022-08-30T20:00:52.998Z,102901.00
2022-08-30T20:03:15.703Z,102906.00
2022-08-30T20:05:48.583Z,102909.00
2022-08-30T20:08:24.367Z,102906.00
2022-08-30T20:10:58.165Z,102905.00
2022-08-30T20:13:33.787Z,102905.00
2022-08-30T20:16:09.222Z,102910.00
2022-08-30T20:18:43.077Z,102913.00
2022-08-30T20:21:16.537Z,102920.00
2022-08-30T20:23:49.435Z,102914.00
2022-08-30T20:26:33.470Z,102917.00
2022-08-30T20:29:01.843Z,102924.00
2022-08-30T20:31:35.442Z,102927.00
2022-08-30T20:34:08.758Z,102933.00
2022-08-30T20:36:42.225Z,102930.00
2022-08-30T20:39:17.400Z,102942.00
2022-08-30T20:41:50.301Z,102947.00
2022-08-30T20:44:25.440Z,102942.00
2022-08-30T20:46:57.564Z,102943.00
2022-08-30T20:49:30.420Z,102952.00
2022-08-30T20:52:05.056Z,102949.00
2022-08-30T20:54:37.940Z,102949.00
2022-08-30T20:57:11.068Z,102955.00
2022-08-30T20:59:44.948Z,102953.00
2022-08-30T21:02:18.166Z,102947.00
2022-08-30T21:04:50.787Z,102948.00
2022-08-30T21:07:23.551Z,102951.00
2022-08-30T21:09:56.441Z,102954.00
2022-08-30T21:12:29.170Z,102953.00
2022-08-30T21:15:15.320Z,102956.00
2022-08-30T21:17:40.382Z,102951.00
2022-08-30T21:20:14.854Z,102952.00
2022-08-30T21:22:47.615Z,102961.00
2022-08-30T21:25:20.405Z,102957.00
2022-08-30T21:27:54.309Z,102951.00
2022-08-30T21:30:27.386Z,102966.00
2022-08-30T21:33:01.969Z,102969.00
2022-08-30T21:35:52.245Z,102966.00
2022-08-30T21:38:25.154Z,102968.00
2022-08-30T21:40:57.976Z,102971.00
2022-08-30T21:43:30.760Z,102959.00
2022-08-30T21:46:05.556Z,102959.00
2022-08-30T21:48:38.953Z,102962.00
2022-08-30T21:51:14.000Z,102960.00
2022-08-30T21:53:46.961Z,102968.00
2022-08-30T21:56:22.543Z,102965.00
2022-08-30T21:58:55.383Z,102972.00
2022-08-30T22:01:29.904Z,102968.00
2022-08-30T22:04:04.352Z,102971.00
2022-08-30T22:06:39.140Z,102973.00
2022-08-30T22:09:14.730Z,102972.00
2022-08-30T22:11:48.507Z,102970.00
2022-08-30T22:14:23.168Z,102974.00
2022-08-30T22:16:56.667Z,102967.00
2022-08-30T22:19:33.827Z,102964.00
2022-08-30T22:22:04.292Z,102970.00
2022-08-30T22:24:37.351Z,102975.00
2022-08-30T22:27:10.243Z,102969.00
2022-08-30T22:29:43.170Z,102970.00
2022-08-30T22:32:15.883Z,102976.00
2022-08-30T22:34:49.944Z,102963.00
2022-08-30T22:37:23.320Z,102958.00
2022-08-30T22:39:56.724Z,102966.00
2022-08-30T22:42:29.485Z,102962.00
2022-08-30T22:45:02.578Z,102961.00
2022-08-30T22:47:35.897Z,102960.00
2022-08-30T22:50:08.993Z,102955.00
2022-08-30T22:52:45.121Z,102951.00
2022-08-30T22:55:18.378Z,102956.00
2022-08-30T22:57:51.358Z,102950.00
2022-08-30T23:00:24.256Z,102957.00
2022-08-30T23:02:58.350Z,102952.00
2022-08-30T23:05:31.298Z,102952.00
2022-08-30T23:08:04.036Z,102953.00
2022-08-30T23:10:37.597Z,102947.00
2022-08-30T23:13:10.383Z,102955.00
2022-08-30T23:15:43.002Z,102947.00
2022-08-30T23:18:16.091Z,102950.00
2022-08-30T23:20:48.934Z,102951.00
2022-08-30T23:23:39.000Z,102942.00
2022-08-30T23:26:29.581Z,102945.00
2022-08-30T23:29:19.559Z,102938.00
2022-08-30T23:32:10.164Z,102942.00
2022-08-30T23:35:00.453Z,102946.00
2022-08-30T23:37:53.081Z,102928.00
2022-08-30T23:40:43.900Z,102930.00
2022-08-30T23:43:34.704Z,102922.00
2022-08-30T23:46:25.102Z,102926.00
2022-08-30T23:49:15.193Z,102923.00
2022-08-30T23:52:05.287Z,102915.00
2022-08-30T23:54:57.320Z,102917.00
2022-08-30T23:57:52.442Z,102915.00
